Terminal Aerodrome Forecast
Issued by NWS

Home | Current Version | Previous Version | Text Only | Print | Product List | Glossary On
Versions: 1 2 3 4 5 6 7 8 9 10 11 12 13 14 15 16 17 18 19 20 21 22 23 24
000
FTUS43 KDLH 261000 AAA
TAFBRD
TAF AMD
KBRD 261008Z 2610/2706 02005KT P6SM FEW007 OVC011
      TEMPO 2610/2613 2SM BR OVC004
     FM261800 VRB06KT P6SM SCT040 OVC200=

USA.gov is the U.S. government's official web portal to all federal, state and local government web resources and services.